createdAt,value
2022-10-05T00:00:56.247Z,77.16
2022-10-05T00:03:37.247Z,77.21
2022-10-05T00:06:05.599Z,76.97
2022-10-05T00:08:35.006Z,76.75
2022-10-05T00:11:02.869Z,77.10
2022-10-05T00:13:31.556Z,76.97
2022-10-05T00:16:05.108Z,77.12
2022-10-05T00:18:33.130Z,76.91
2022-10-05T00:21:01.103Z,77.32
2022-10-05T00:23:32.237Z,77.04
2022-10-05T00:26:11.722Z,77.01
2022-10-05T00:28:41.078Z,76.84
2022-10-05T00:31:17.931Z,76.94
2022-10-05T00:33:46.545Z,76.84
2022-10-05T00:36:14.759Z,76.54
2022-10-05T00:38:43.088Z,76.67
2022-10-05T00:41:30.411Z,76.67
2022-10-05T00:44:04.130Z,76.81
2022-10-05T00:46:44.558Z,76.89
2022-10-05T00:49:35.996Z,77.16
2022-10-05T00:52:20.556Z,77.12
2022-10-05T00:55:11.870Z,77.22
2022-10-05T00:57:51.308Z,77.47
2022-10-05T01:00:23.271Z,77.31
2022-10-05T01:03:09.671Z,77.30
2022-10-05T01:05:51.771Z,77.44
2022-10-05T01:08:25.781Z,77.55
2022-10-05T01:11:10.544Z,77.57
2022-10-05T01:13:51.729Z,77.58
2022-10-05T01:16:29.900Z,77.55
2022-10-05T01:18:58.421Z,77.32
2022-10-05T01:21:27.302Z,77.10
2022-10-05T01:24:19.643Z,77.17
2022-10-05T01:26:56.930Z,77.60
2022-10-05T01:29:30.737Z,77.52
2022-10-05T01:32:37.105Z,77.71
2022-10-05T01:35:40.510Z,77.35
2022-10-05T01:38:17.499Z,77.60
2022-10-05T01:40:48.220Z,77.48
2022-10-05T01:43:25.114Z,77.18
2022-10-05T01:46:07.383Z,77.22
2022-10-05T01:48:47.351Z,77.33
2022-10-05T01:51:15.221Z,77.67
2022-10-05T01:53:57.216Z,77.39
2022-10-05T01:56:37.474Z,77.47
2022-10-05T01:59:16.793Z,77.19
2022-10-05T02:02:09.209Z,77.37
2022-10-05T02:07:31.213Z,77.29
2022-10-05T02:10:03.262Z,77.95
2022-10-05T02:12:33.282Z,77.80
2022-10-05T02:15:08.429Z,78.02
2022-10-05T02:17:38.930Z,77.91
2022-10-05T02:20:10.547Z,77.98
2022-10-05T02:22:41.846Z,78.06
2022-10-05T02:25:13.031Z,77.78
2022-10-05T02:28:04.345Z,77.40
2022-10-05T02:30:34.532Z,77.82
2022-10-05T02:33:18.451Z,77.96
2022-10-05T02:35:46.851Z,77.83
2022-10-05T02:38:20.424Z,77.62
2022-10-05T02:40:49.446Z,77.67
2022-10-05T02:43:39.121Z,77.57
2022-10-05T02:46:17.186Z,77.56
2022-10-05T02:48:51.238Z,77.23
2022-10-05T02:51:19.516Z,77.32
2022-10-05T02:54:11.040Z,77.55
2022-10-05T02:56:39.005Z,77.65
2022-10-05T02:59:09.637Z,77.50
2022-10-05T03:01:50.754Z,77.78
2022-10-05T03:04:32.198Z,77.63
2022-10-05T03:07:33.141Z,77.68
2022-10-05T03:10:20.361Z,77.87
2022-10-05T03:12:53.962Z,77.75
2022-10-05T03:15:26.235Z,77.80
2022-10-05T03:18:03.518Z,77.79
2022-10-05T03:20:40.703Z,77.97
2022-10-05T03:23:13.486Z,77.65
2022-10-05T03:25:47.599Z,77.86
2022-10-05T03:28:26.497Z,77.61
2022-10-05T03:30:55.013Z,77.47
2022-10-05T03:33:30.961Z,77.56
2022-10-05T03:35:59.034Z,77.81
2022-10-05T03:38:45.433Z,77.33
2022-10-05T03:41:21.905Z,77.81
2022-10-05T03:43:49.871Z,77.78
2022-10-05T03:46:27.059Z,77.45
2022-10-05T03:48:58.322Z,77.21
2022-10-05T03:51:35.281Z,77.24
2022-10-05T03:54:06.425Z,76.97
2022-10-05T03:56:44.415Z,77.25
2022-10-05T03:59:22.847Z,77.31
2022-10-05T04:01:59.170Z,77.42
2022-10-05T04:04:31.478Z,77.47
2022-10-05T04:07:00.369Z,77.64
2022-10-05T04:09:34.973Z,77.71
2022-10-05T04:12:10.036Z,77.64
2022-10-05T04:14:41.789Z,77.69
2022-10-05T04:17:12.725Z,77.27
2022-10-05T04:19:44.380Z,77.75
2022-10-05T04:22:16.036Z,77.98
2022-10-05T04:24:47.792Z,77.79
2022-10-05T04:27:18.116Z,77.60
2022-10-05T04:29:49.981Z,77.60
2022-10-05T04:32:29.935Z,77.59
2022-10-05T04:35:05.473Z,77.48
2022-10-05T04:37:33.544Z,77.27
2022-10-05T04:40:19.741Z,77.15
2022-10-05T04:43:03.276Z,77.02
2022-10-05T04:45:45.478Z,77.32
2022-10-05T04:48:29.728Z,77.24
2022-10-05T04:51:03.739Z,77.16
2022-10-05T04:53:36.316Z,76.94
2022-10-05T04:56:10.833Z,77.07
2022-10-05T04:58:57.341Z,77.14
2022-10-05T05:01:44.459Z,77.19
2022-10-05T05:04:21.644Z,76.83
2022-10-05T05:06:57.089Z,76.98
2022-10-05T05:09:25.774Z,77.09
2022-10-05T05:11:53.847Z,76.97
2022-10-05T05:14:40.657Z,76.91
2022-10-05T05:17:14.872Z,77.00
2022-10-05T05:19:52.775Z,76.73
2022-10-05T05:22:29.235Z,77.39
2022-10-05T05:25:12.591Z,76.84
2022-10-05T05:27:48.116Z,77.36
2022-10-05T05:30:33.803Z,76.90
2022-10-05T05:33:08.527Z,76.95
2022-10-05T05:35:45.202Z,76.87
2022-10-05T05:38:13.785Z,76.85
2022-10-05T05:40:46.876Z,77.02
2022-10-05T05:43:24.467Z,77.09
2022-10-05T05:45:59.093Z,76.98
2022-10-05T05:48:43.963Z,77.06
2022-10-05T05:51:21.761Z,76.88
2022-10-05T05:54:09.183Z,77.46
2022-10-05T05:56:43.397Z,77.14
2022-10-05T05:59:14.746Z,77.26
2022-10-05T06:01:49.135Z,77.44
2022-10-05T06:04:19.490Z,77.35
2022-10-05T06:06:50.185Z,77.54
2022-10-05T06:09:33.967Z,77.30
2022-10-05T06:12:18.213Z,77.29
2022-10-05T06:14:52.431Z,77.58
2022-10-05T06:17:25.006Z,77.46
2022-10-05T06:19:55.125Z,77.33
2022-10-05T06:22:30.399Z,77.12
2022-10-05T06:25:07.754Z,77.15
2022-10-05T06:27:44.938Z,77.12
2022-10-05T06:30:15.367Z,77.29
2022-10-05T06:33:16.410Z,77.21
2022-10-05T06:36:00.253Z,77.11
2022-10-05T06:38:48.495Z,76.70
2022-10-05T06:41:35.203Z,77.02
2022-10-05T06:44:03.581Z,76.95
2022-10-05T06:46:55.923Z,76.97
2022-10-05T06:49:51.725Z,76.99
2022-10-05T06:52:46.746Z,77.04
2022-10-05T06:55:21.169Z,77.01
2022-10-05T06:57:49.238Z,76.50
2022-10-05T07:00:22.946Z,76.58
2022-10-05T07:02:57.157Z,76.59
2022-10-05T07:05:31.987Z,76.55
2022-10-05T07:08:03.233Z,76.35
2022-10-05T07:10:33.035Z,76.23
2022-10-05T07:13:20.469Z,76.19
2022-10-05T07:15:55.295Z,76.11
2022-10-05T07:18:42.317Z,76.15
2022-10-05T07:21:22.675Z,76.00
2022-10-05T07:24:09.485Z,75.96
2022-10-05T07:26:46.642Z,75.71
2022-10-05T07:29:44.232Z,75.76
2022-10-05T07:32:22.341Z,75.94
2022-10-05T07:34:59.320Z,75.70
2022-10-05T07:37:49.611Z,75.72
2022-10-05T07:40:39.803Z,75.21
2022-10-05T07:43:14.837Z,75.10
2022-10-05T07:45:52.693Z,74.57
2022-10-05T07:48:33.404Z,74.66
2022-10-05T07:51:20.736Z,74.93
2022-10-05T07:53:59.158Z,75.12
2022-10-05T07:56:34.688Z,75.27
2022-10-05T07:59:18.118Z,75.30
2022-10-05T08:01:49.529Z,75.32
2022-10-05T08:04:20.305Z,75.04
2022-10-05T08:06:50.979Z,74.88
2022-10-05T08:09:19.076Z,74.88
2022-10-05T08:11:47.319Z,74.41
2022-10-05T08:14:16.891Z,73.69
2022-10-05T08:16:46.889Z,74.18
2022-10-05T08:19:28.392Z,74.27
2022-10-05T08:21:59.330Z,73.85
2022-10-05T08:24:46.039Z,73.69
2022-10-05T08:27:16.976Z,73.32
2022-10-05T08:30:02.353Z,73.52
2022-10-05T08:32:33.298Z,73.81
2022-10-05T08:35:01.609Z,73.40
2022-10-05T08:37:32.507Z,73.88
2022-10-05T08:40:00.372Z,74.38
2022-10-05T08:42:44.900Z,74.35
2022-10-05T08:45:31.845Z,74.04
2022-10-05T08:48:18.859Z,73.76
2022-10-05T08:50:58.809Z,73.79
2022-10-05T08:53:52.382Z,73.68
2022-10-05T08:56:22.201Z,72.91
2022-10-05T08:59:10.537Z,72.61
2022-10-05T09:01:40.499Z,72.41
2022-10-05T09:04:17.742Z,72.41
2022-10-05T09:06:53.182Z,72.29
2022-10-05T09:09:21.050Z,72.44
2022-10-05T09:11:49.219Z,72.56
2022-10-05T09:14:36.253Z,72.54
2022-10-05T09:17:09.533Z,72.03
2022-10-05T09:19:52.939Z,71.88
2022-10-05T09:22:38.958Z,71.66
2022-10-05T09:25:10.099Z,71.44
2022-10-05T09:27:39.162Z,71.62
2022-10-05T09:30:27.746Z,71.20
2022-10-05T09:33:11.279Z,71.15
2022-10-05T09:36:00.854Z,71.30
2022-10-05T09:38:34.865Z,71.33
2022-10-05T09:41:35.091Z,71.09
2022-10-05T09:44:08.896Z,70.27
2022-10-05T09:46:45.878Z,70.36
2022-10-05T09:49:16.918Z,70.58
2022-10-05T09:52:03.830Z,71.12
2022-10-05T09:54:31.697Z,70.79
2022-10-05T09:57:17.892Z,71.12
2022-10-05T10:03:00.003Z,70.95
2022-10-05T10:05:34.229Z,70.87
2022-10-05T10:08:14.179Z,71.13
2022-10-05T10:11:02.334Z,71.14
2022-10-05T10:13:30.188Z,70.99
2022-10-05T10:15:58.281Z,70.77
2022-10-05T10:18:35.341Z,70.93
2022-10-05T10:21:06.076Z,70.86
2022-10-05T10:23:49.508Z,70.61
2022-10-05T10:26:23.415Z,70.65
2022-10-05T10:28:57.426Z,70.61
2022-10-05T10:31:31.291Z,70.37
2022-10-05T10:34:18.245Z,70.55
2022-10-05T10:37:11.302Z,70.29
2022-10-05T10:39:58.113Z,70.33
2022-10-05T10:42:29.052Z,69.90
2022-10-05T10:44:58.767Z,69.03
2022-10-05T10:47:44.143Z,68.59
2022-10-05T10:50:33.307Z,68.80
2022-10-05T10:53:20.322Z,69.14
2022-10-05T10:56:12.250Z,69.37
2022-10-05T10:58:40.220Z,68.97
2022-10-05T11:01:08.085Z,68.82
2022-10-05T11:03:54.793Z,68.13
2022-10-05T11:06:38.228Z,67.32
2022-10-05T11:09:09.573Z,67.70
2022-10-05T11:11:37.441Z,67.29
2022-10-05T11:14:08.176Z,67.44
2022-10-05T11:16:54.881Z,67.17
2022-10-05T11:19:39.920Z,67.28
2022-10-05T11:22:17.537Z,67.15
2022-10-05T11:24:45.415Z,66.80
2022-10-05T11:30:02.149Z,66.17
2022-10-05T11:32:33.077Z,65.69
2022-10-05T11:35:29.820Z,65.81
2022-10-05T11:38:10.078Z,65.79
2022-10-05T11:40:49.719Z,66.03
2022-10-05T11:43:17.587Z,65.84
2022-10-05T11:45:45.554Z,65.31
2022-10-05T11:48:22.331Z,65.47
2022-10-05T11:50:50.199Z,65.26
2022-10-05T11:53:24.411Z,65.20
2022-10-05T11:55:54.084Z,65.28
2022-10-05T11:58:42.264Z,65.21
2022-10-05T12:01:18.015Z,65.34
2022-10-05T12:10:14.319Z,63.86
2022-10-05T12:13:01.466Z,64.31
2022-10-05T12:15:42.243Z,64.38
2022-10-05T12:18:24.165Z,64.59
2022-10-05T12:20:52.654Z,64.31
2022-10-05T12:23:30.350Z,64.58
2022-10-05T12:25:58.217Z,64.45
2022-10-05T12:28:33.602Z,64.12
2022-10-05T12:31:15.299Z,63.29
2022-10-05T12:33:49.566Z,63.54
2022-10-05T12:36:19.993Z,63.59
2022-10-05T12:38:54.004Z,63.69
2022-10-05T12:41:25.044Z,63.77
2022-10-05T12:43:59.049Z,63.46
2022-10-05T12:46:35.112Z,63.72
2022-10-05T12:49:03.012Z,63.38
2022-10-05T12:51:30.950Z,63.76
2022-10-05T12:54:13.766Z,63.81
2022-10-05T12:56:52.897Z,64.33
2022-10-05T12:59:23.527Z,64.58
2022-10-05T13:02:09.085Z,64.04
2022-10-05T13:04:38.832Z,63.51
2022-10-05T13:07:19.179Z,64.32
2022-10-05T13:09:50.218Z,64.44
2022-10-05T13:12:36.415Z,64.61
2022-10-05T13:15:19.645Z,64.70
2022-10-05T13:17:58.274Z,64.56
2022-10-05T13:20:28.892Z,64.57
2022-10-05T13:22:59.529Z,64.50
2022-10-05T13:25:31.691Z,64.36
2022-10-05T13:28:02.471Z,64.40
2022-10-05T13:30:30.701Z,64.32
2022-10-05T13:33:04.917Z,64.26
2022-10-05T13:35:35.547Z,64.24
2022-10-05T13:38:26.557Z,64.20
2022-10-05T13:41:00.364Z,64.53
2022-10-05T13:43:33.702Z,64.44
2022-10-05T13:46:07.418Z,64.78
2022-10-05T13:48:54.067Z,64.63
2022-10-05T13:51:23.879Z,64.84
2022-10-05T13:54:10.794Z,64.61
2022-10-05T13:56:42.959Z,64.65
2022-10-05T13:59:19.224Z,64.71
2022-10-05T14:01:53.187Z,64.84
2022-10-05T14:04:24.791Z,64.67
2022-10-05T14:06:53.063Z,64.75
2022-10-05T14:09:20.928Z,64.57
2022-10-05T14:11:54.942Z,64.74
2022-10-05T14:14:28.437Z,64.59
2022-10-05T14:16:58.260Z,64.62
2022-10-05T14:19:28.138Z,64.61
2022-10-05T14:22:01.767Z,64.43
2022-10-05T14:24:44.639Z,64.55
2022-10-05T14:27:19.516Z,64.76
2022-10-05T14:29:54.549Z,64.85
2022-10-05T14:32:27.227Z,64.93
2022-10-05T14:34:55.095Z,65.23
2022-10-05T14:37:31.501Z,65.40
2022-10-05T14:40:03.444Z,65.62
2022-10-05T14:42:46.254Z,65.69
2022-10-05T14:45:18.101Z,65.85
2022-10-05T14:48:02.762Z,66.02
2022-10-05T14:50:31.611Z,66.17
2022-10-05T14:53:11.910Z,66.30
2022-10-05T14:55:51.960Z,66.29
2022-10-05T14:58:28.838Z,66.36
2022-10-05T15:01:02.083Z,66.67
2022-10-05T15:03:46.794Z,66.85
2022-10-05T15:06:37.802Z,67.02
2022-10-05T15:09:16.978Z,67.11
2022-10-05T15:11:53.607Z,67.37
2022-10-05T15:14:21.574Z,67.61
2022-10-05T15:16:58.825Z,67.74
2022-10-05T15:19:40.551Z,68.01
2022-10-05T15:22:11.155Z,67.86
2022-10-05T15:24:42.748Z,67.92
2022-10-05T15:27:24.016Z,68.12
2022-10-05T15:29:57.823Z,68.17
2022-10-05T15:32:34.803Z,68.26
2022-10-05T15:35:18.028Z,68.23
2022-10-05T15:38:09.346Z,68.34
2022-10-05T15:40:39.874Z,68.37
2022-10-05T15:43:13.784Z,68.44
2022-10-05T15:45:53.918Z,68.41
2022-10-05T15:48:48.735Z,68.42
2022-10-05T15:51:31.142Z,68.58
2022-10-05T15:54:23.897Z,68.54
2022-10-05T15:57:12.240Z,68.65
2022-10-05T16:00:02.247Z,68.72
2022-10-05T16:02:44.671Z,68.84
2022-10-05T16:05:12.906Z,68.94
2022-10-05T16:08:08.015Z,68.97
2022-10-05T16:10:41.614Z,68.89
2022-10-05T16:13:15.316Z,68.83
2022-10-05T16:15:48.920Z,69.04
2022-10-05T16:18:18.730Z,69.13
2022-10-05T16:20:55.742Z,69.22
2022-10-05T16:23:23.684Z,69.18
2022-10-05T16:25:59.895Z,69.37
2022-10-05T16:28:38.536Z,69.32
2022-10-05T16:31:06.922Z,69.36
2022-10-05T16:33:54.711Z,69.42
2022-10-05T16:36:28.376Z,69.49
2022-10-05T16:39:15.083Z,69.55
2022-10-05T16:42:03.133Z,69.57
2022-10-05T16:44:43.073Z,69.57
2022-10-05T16:47:29.497Z,69.69
2022-10-05T16:50:05.071Z,69.79
2022-10-05T16:52:34.201Z,69.76
2022-10-05T16:55:04.660Z,69.63
2022-10-05T16:57:36.193Z,69.59
2022-10-05T17:00:14.889Z,69.76
2022-10-05T17:02:46.631Z,69.74
2022-10-05T17:05:42.600Z,69.84
2022-10-05T17:08:13.435Z,69.84
2022-10-05T17:10:41.303Z,69.96
2022-10-05T17:13:28.935Z,69.84
2022-10-05T17:16:06.156Z,69.75
2022-10-05T17:18:52.621Z,69.82
2022-10-05T17:21:34.931Z,69.85
2022-10-05T17:24:11.805Z,69.74
2022-10-05T17:26:48.273Z,69.71
2022-10-05T17:29:34.674Z,69.78
2022-10-05T17:32:02.641Z,69.86
2022-10-05T17:34:35.116Z,69.93
2022-10-05T17:37:32.168Z,69.93
2022-10-05T17:40:02.514Z,69.93
2022-10-05T17:42:30.461Z,69.89
2022-10-05T17:44:59.863Z,69.96
2022-10-05T17:47:47.603Z,69.94
2022-10-05T17:50:53.861Z,69.87
2022-10-05T17:53:46.099Z,70.01
2022-10-05T17:56:14.069Z,70.03
2022-10-05T17:58:44.804Z,70.05
2022-10-05T18:01:27.344Z,69.96
2022-10-05T18:04:16.890Z,70.08
2022-10-05T18:06:58.987Z,70.16
2022-10-05T18:09:27.879Z,70.04
2022-10-05T18:11:55.746Z,70.12
2022-10-05T18:14:24.964Z,70.13
2022-10-05T18:16:56.702Z,70.11
2022-10-05T18:19:24.977Z,70.09
2022-10-05T18:22:15.571Z,70.31
2022-10-05T18:24:43.443Z,70.19
2022-10-05T18:27:34.861Z,70.02
2022-10-05T18:30:12.456Z,70.33
2022-10-05T18:32:52.641Z,70.19
2022-10-05T18:35:27.340Z,70.22
2022-10-05T18:38:04.013Z,70.21
2022-10-05T18:40:38.514Z,69.93
2022-10-05T18:45:29.967Z,70.28
2022-10-05T18:47:57.833Z,70.27
2022-10-05T18:50:38.602Z,70.14
2022-10-05T18:53:19.370Z,70.28
2022-10-05T18:55:53.483Z,70.23
2022-10-05T18:58:26.318Z,70.19
2022-10-05T19:01:13.614Z,70.17
2022-10-05T19:03:41.763Z,70.27
2022-10-05T19:06:14.240Z,70.23
2022-10-05T19:08:54.801Z,70.04
2022-10-05T19:13:19.519Z,70.20
2022-10-05T19:16:03.083Z,70.22
2022-10-05T19:19:07.978Z,70.24
2022-10-05T19:21:47.291Z,70.12
2022-10-05T19:25:01.054Z,70.25
2022-10-05T19:27:51.800Z,70.20
2022-10-05T19:30:44.505Z,70.20
2022-10-05T19:33:40.634Z,70.17
2022-10-05T19:36:30.109Z,70.18
2022-10-05T19:39:06.373Z,70.22
2022-10-05T19:41:55.027Z,70.22
2022-10-05T19:44:44.599Z,70.06
2022-10-05T19:47:22.501Z,70.16
2022-10-05T19:49:53.238Z,70.47
2022-10-05T19:52:26.121Z,70.35
2022-10-05T19:55:12.930Z,70.40
2022-10-05T19:57:53.084Z,70.28
2022-10-05T20:00:33.240Z,70.41
2022-10-05T20:03:14.472Z,70.41
2022-10-05T20:05:42.796Z,70.41
2022-10-05T20:08:20.009Z,70.27
2022-10-05T20:11:09.454Z,70.44
2022-10-05T20:13:40.190Z,70.13
2022-10-05T20:16:36.085Z,70.18
2022-10-05T20:19:51.595Z,70.27
2022-10-05T20:22:33.168Z,70.28
2022-10-05T20:25:07.603Z,70.31
2022-10-05T20:27:37.400Z,70.30
2022-10-05T20:30:06.923Z,70.37
2022-10-05T20:32:50.791Z,70.18
2022-10-05T20:35:23.852Z,70.30
2022-10-05T20:38:12.709Z,70.33
2022-10-05T20:40:40.780Z,70.33
2022-10-05T20:43:33.224Z,70.22
2022-10-05T20:46:01.294Z,70.43
2022-10-05T20:48:29.623Z,70.31
2022-10-05T20:50:58.051Z,70.43
2022-10-05T20:53:26.123Z,70.37
2022-10-05T20:55:54.195Z,70.25
2022-10-05T20:58:23.948Z,70.38
2022-10-05T21:01:11.057Z,70.37
2022-10-05T21:03:39.195Z,70.32
2022-10-05T21:06:07.805Z,70.23
2022-10-05T21:08:37.499Z,70.38
2022-10-05T21:11:09.247Z,70.37
2022-10-05T21:13:44.794Z,70.18
2022-10-05T21:16:18.693Z,70.43
2022-10-05T21:18:48.926Z,70.30
2022-10-05T21:21:18.031Z,70.39
2022-10-05T21:23:47.421Z,70.57
2022-10-05T21:26:16.292Z,70.28
2022-10-05T21:28:44.655Z,70.37
2022-10-05T21:31:12.786Z,70.27
2022-10-05T21:33:41.242Z,70.35
2022-10-05T21:36:09.621Z,70.27
2022-10-05T21:38:37.962Z,70.21
2022-10-05T21:41:05.969Z,70.51
2022-10-05T21:43:35.270Z,70.21
2022-10-05T21:46:03.738Z,70.35
2022-10-05T21:48:33.972Z,70.30
2022-10-05T21:51:02.760Z,70.39
2022-10-05T21:53:34.108Z,70.14
2022-10-05T21:56:04.637Z,70.35
2022-10-05T21:58:32.810Z,70.44
2022-10-05T22:01:00.928Z,70.16
2022-10-05T22:03:29.880Z,70.35
2022-10-05T22:05:57.991Z,70.15
2022-10-05T22:08:29.511Z,70.36
2022-10-05T22:10:58.239Z,70.15
2022-10-05T22:13:27.718Z,70.24
2022-10-05T22:15:56.759Z,70.31
2022-10-05T22:18:27.133Z,70.41
2022-10-05T22:20:55.387Z,70.52
2022-10-05T22:23:23.456Z,70.19
2022-10-05T22:25:51.530Z,70.17
2022-10-05T22:28:19.723Z,70.18
2022-10-05T22:30:47.977Z,70.44
2022-10-05T22:33:16.052Z,70.43
2022-10-05T22:35:44.326Z,70.10
2022-10-05T22:38:12.397Z,70.17
2022-10-05T22:40:40.569Z,70.34
2022-10-05T22:43:08.951Z,69.91
2022-10-05T22:45:37.152Z,70.28
2022-10-05T22:48:05.912Z,70.18
2022-10-05T22:50:33.982Z,70.33
2022-10-05T22:53:02.054Z,70.38
2022-10-05T22:55:30.227Z,70.23
2022-10-05T22:57:58.298Z,70.09
2022-10-05T23:00:40.528Z,70.19
2022-10-05T23:03:16.255Z,70.16
2022-10-05T23:05:44.325Z,70.01
2022-10-05T23:08:12.394Z,69.96
2022-10-05T23:10:40.466Z,70.17
2022-10-05T23:13:08.947Z,70.02
2022-10-05T23:15:37.018Z,70.05
2022-10-05T23:18:05.091Z,70.00
2022-10-05T23:20:33.160Z,70.07
2022-10-05T23:23:01.232Z,70.14
2022-10-05T23:25:29.308Z,70.14
2022-10-05T23:27:57.397Z,70.31
2022-10-05T23:30:25.470Z,70.08
2022-10-05T23:32:53.621Z,69.97
2022-10-05T23:35:21.691Z,70.19
2022-10-05T23:37:49.660Z,70.09
2022-10-05T23:40:17.937Z,69.93
2022-10-05T23:42:47.237Z,70.12
2022-10-05T23:45:15.307Z,69.95
2022-10-05T23:47:43.379Z,70.11
2022-10-05T23:50:11.451Z,70.00
2022-10-05T23:52:39.523Z,70.06
2022-10-05T23:55:07.926Z,70.17
2022-10-05T23:57:35.974Z,70.17
